Time;durP1;ratioP1;P1;durP2;ratioP2;P2;SDS_P1;SDS_P2;PMS_P1;PMS_P2;Temp;Humidity;BMP_temperature;BMP_pressure;BME280_temperature;BME280_humidity;BME280_pressure;Samples;Min_cycle;Max_cycle;Signal;HPM_P1;HPM_P2
2021/06/24 00:01:41;;;;;;;4.65;3.10;;;;;;;16.62;100.00;101389.91;4992658;28;20307;-75
2021/06/24 00:04:09;;;;;;;6.70;3.20;;;;;;;16.80;100.00;101402.84;4993454;28;20585;-75
2021/06/24 00:06:34;;;;;;;5.25;3.10;;;;;;;16.91;100.00;101398.84;4993497;28;20225;-74
2021/06/24 00:09:00;;;;;;;4.15;3.03;;;;;;;16.75;100.00;101408.38;4994033;28;20230;-75
2021/06/24 00:11:30;;;;;;;5.88;3.10;;;;;;;16.71;100.00;101415.56;4983800;28;20237;-74
2021/06/24 00:13:57;;;;;;;6.53;3.00;;;;;;;16.75;100.00;101432.28;4975267;28;20209;-75
2021/06/24 00:16:25;;;;;;;4.32;3.10;;;;;;;16.90;100.00;101432.06;4993894;28;20216;-74
2021/06/24 00:18:55;;;;;;;5.43;2.88;;;;;;;16.99;100.00;101433.88;5010672;28;20208;-75
2021/06/24 00:21:22;;;;;;;5.82;3.05;;;;;;;16.97;100.00;101414.94;4989282;28;20292;-75
2021/06/24 00:23:50;;;;;;;8.38;3.40;;;;;;;16.91;100.00;101423.56;4958755;28;20209;-75
2021/06/24 00:26:18;;;;;;;6.03;3.10;;;;;;;16.95;100.00;101424.59;4976589;28;20719;-75
2021/06/24 00:28:48;;;;;;;8.25;3.40;;;;;;;16.89;100.00;101417.53;5010062;28;20199;-75
2021/06/24 00:31:13;;;;;;;5.95;2.70;;;;;;;16.81;100.00;101420.13;5004929;28;20313;-75
2021/06/24 00:33:39;;;;;;;5.90;3.30;;;;;;;16.88;100.00;101421.38;4990453;28;20713;-75
2021/06/24 00:36:07;;;;;;;8.00;3.13;;;;;;;16.89;100.00;101439.50;4986058;28;20220;-75
2021/06/24 00:38:37;;;;;;;7.20;3.10;;;;;;;17.00;100.00;101451.97;4994100;28;20220;-75
2021/06/24 00:41:04;;;;;;;7.00;2.90;;;;;;;17.04;100.00;101447.53;4972864;28;20691;-75
2021/06/24 00:43:29;;;;;;;5.18;3.22;;;;;;;17.07;100.00;101449.69;4998209;28;20675;-75
2021/06/24 00:45:56;;;;;;;5.07;3.05;;;;;;;16.93;100.00;101452.31;5005774;28;20220;-75
2021/06/24 00:48:22;;;;;;;5.60;3.75;;;;;;;16.84;100.00;101446.97;4990100;28;20259;-75
2021/06/24 00:50:51;;;;;;;5.30;3.03;;;;;;;16.82;100.00;101440.97;5000998;28;20350;-75
2021/06/24 00:53:17;;;;;;;7.05;3.30;;;;;;;16.67;100.00;101425.50;5009423;28;20219;-75
2021/06/24 00:55:46;;;;;;;7.05;3.47;;;;;;;16.64;100.00;101423.34;4992600;28;20274;-74
2021/06/24 00:58:20;;;;;;;6.85;3.25;;;;;;;16.68;100.00;101415.34;4993568;28;20205;-74
2021/06/24 01:00:48;;;;;;;6.65;3.38;;;;;;;16.67;100.00;101403.56;4978919;28;20229;-75
2021/06/24 01:03:16;;;;;;;4.32;3.40;;;;;;;16.73;100.00;101402.38;4989631;28;20197;-75
2021/06/24 01:05:48;;;;;;;6.75;3.25;;;;;;;16.77;100.00;101417.13;4972452;28;20303;-75
2021/06/24 01:08:15;;;;;;;6.38;3.60;;;;;;;16.74;100.00;101415.00;4989862;28;20198;-75
2021/06/24 01:10:44;;;;;;;5.68;3.40;;;;;;;16.63;100.00;101410.75;4979471;28;20233;-74
2021/06/24 01:13:13;;;;;;;5.47;3.13;;;;;;;16.62;100.00;101411.84;5001106;28;20181;-74
2021/06/24 01:15:42;;;;;;;4.20;3.30;;;;;;;16.40;100.00;101398.97;5017775;28;20840;-75
2021/06/24 01:18:08;;;;;;;5.40;3.65;;;;;;;16.38;100.00;101398.44;4989291;28;20189;-75
2021/06/24 01:20:39;;;;;;;6.88;3.40;;;;;;;16.29;100.00;101392.78;4996055;28;20251;-75
2021/06/24 01:23:10;;;;;;;5.63;3.80;;;;;;;16.45;100.00;101393.44;4994211;28;20188;-75
2021/06/24 01:25:36;;;;;;;5.72;3.88;;;;;;;16.38;100.00;101388.28;4992454;28;20254;-75
2021/06/24 01:28:07;;;;;;;7.55;3.80;;;;;;;16.45;100.00;101396.19;5026039;28;20295;-75
2021/06/24 01:30:41;;;;;;;5.78;3.42;;;;;;;16.45;100.00;101393.44;4988355;28;20686;-75
2021/06/24 01:33:07;;;;;;;5.40;3.70;;;;;;;16.39;100.00;101387.19;4973668;28;20189;-75
2021/06/24 01:35:35;;;;;;;6.38;3.83;;;;;;;16.45;100.00;101379.72;4973069;28;20220;-75
2021/06/24 01:38:08;;;;;;;5.35;3.60;;;;;;;16.44;100.00;101375.34;4989381;28;20189;-74
2021/06/24 01:40:44;;;;;;;5.80;3.63;;;;;;;16.39;100.00;101378.13;4990293;28;20633;-74
2021/06/24 01:43:12;;;;;;;9.07;4.07;;;;;;;16.34;100.00;101375.47;4992194;28;20670;-74
2021/06/24 01:45:49;;;;;;;6.75;4.03;;;;;;;16.23;100.00;101380.25;4988662;28;20221;-74
2021/06/24 01:48:15;;;;;;;6.43;4.00;;;;;;;16.12;100.00;101372.41;4989654;28;20240;-74
2021/06/24 01:50:41;;;;;;;5.07;3.42;;;;;;;16.02;100.00;101377.16;4958062;28;20233;-75
2021/06/24 01:53:06;;;;;;;5.05;3.97;;;;;;;15.95;100.00;101371.19;5009097;28;20177;-74
2021/06/24 01:55:32;;;;;;;5.97;4.13;;;;;;;16.05;100.00;101371.91;5007976;28;20231;-74
2021/06/24 01:58:02;;;;;;;6.60;4.00;;;;;;;16.17;100.00;101364.94;5009174;28;20173;-74
2021/06/24 02:01:04;;;;;;;6.80;3.83;;;;;;;16.13;100.00;101363.03;4970874;28;20741;-75
2021/06/24 02:03:42;;;;;;;6.05;3.90;;;;;;;15.97;100.00;101369.81;4942374;28;20193;-75
2021/06/24 02:06:08;;;;;;;5.15;4.03;;;;;;;15.87;100.00;101364.41;4995231;28;20212;-75
2021/06/24 02:08:38;;;;;;;6.32;4.10;;;;;;;15.99;100.00;101362.13;5013667;28;20201;-75
2021/06/24 02:11:16;;;;;;;7.22;4.30;;;;;;;15.95;100.00;101362.97;5011065;28;20224;-75
2021/06/24 02:13:44;;;;;;;8.55;4.10;;;;;;;15.80;100.00;101368.59;5005461;28;20303;-75
2021/06/24 02:16:15;;;;;;;6.60;3.33;;;;;;;15.72;100.00;101368.44;5008442;28;20809;-75
2021/06/24 02:18:41;;;;;;;7.82;3.65;;;;;;;15.55;100.00;101376.28;4976642;28;20178;-75
2021/06/24 02:21:13;;;;;;;7.13;3.88;;;;;;;15.57;100.00;101374.06;4978500;28;20570;-75
2021/06/24 02:23:55;;;;;;;7.43;4.28;;;;;;;15.67;100.00;101373.97;5014728;28;20205;-75
2021/06/24 02:26:26;;;;;;;7.00;4.00;;;;;;;15.71;100.00;101364.84;4992346;28;20236;-75
2021/06/24 02:29:17;;;;;;;7.85;4.00;;;;;;;15.68;100.00;101375.59;4994047;28;20214;-75
2021/06/24 02:31:46;;;;;;;8.70;4.68;;;;;;;15.57;100.00;101361.16;4996575;28;20224;-75
2021/06/24 02:34:28;;;;;;;6.53;4.00;;;;;;;15.49;100.00;101361.81;5014687;28;20705;-75
2021/06/24 02:37:05;;;;;;;9.03;4.40;;;;;;;15.42;100.00;101360.50;4993225;28;20271;-75
2021/06/24 02:39:50;;;;;;;8.85;4.45;;;;;;;15.36;100.00;101361.63;4979463;28;20205;-76
2021/06/24 02:42:19;;;;;;;7.22;4.05;;;;;;;15.35;100.00;101370.94;5009698;28;20240;-75
2021/06/24 02:44:50;;;;;;;9.10;4.30;;;;;;;15.40;100.00;101365.41;4992749;28;20208;-75
2021/06/24 02:47:17;;;;;;;7.28;4.30;;;;;;;15.52;100.00;101371.34;4984065;28;20221;-75
2021/06/24 02:49:43;;;;;;;7.90;4.27;;;;;;;15.49;100.00;101371.91;4995877;28;20189;-75
2021/06/24 02:52:09;;;;;;;6.50;4.93;;;;;;;15.59;100.00;101371.84;5007203;28;20225;-75
2021/06/24 02:54:37;;;;;;;7.43;4.37;;;;;;;15.74;100.00;101361.56;4991589;28;20243;-75
2021/06/24 02:57:03;;;;;;;5.80;4.50;;;;;;;15.85;100.00;101360.34;4997152;28;20221;-74
2021/06/24 02:59:47;;;;;;;5.73;5.13;;;;;;;15.86;100.00;101351.03;5012539;28;20236;-75
2021/06/24 03:02:13;;;;;;;8.70;5.28;;;;;;;15.88;100.00;101352.38;4994116;28;20228;-75
2021/06/24 03:04:45;;;;;;;5.83;5.00;;;;;;;15.86;100.00;101357.31;4996188;28;20207;-74
2021/06/24 03:07:11;;;;;;;5.60;4.57;;;;;;;15.95;100.00;101365.72;5008360;28;20225;-75
2021/06/24 03:09:55;;;;;;;7.95;4.60;;;;;;;15.98;100.00;101360.47;4993322;28;20197;-76
2021/06/24 03:12:23;;;;;;;6.78;4.57;;;;;;;15.97;100.00;101350.63;5009713;28;20274;-75
2021/06/24 03:14:59;;;;;;;7.20;5.30;;;;;;;16.00;100.00;101344.56;4992895;28;20596;-76
2021/06/24 03:17:24;;;;;;;7.13;5.22;;;;;;;15.97;100.00;101336.94;4982455;28;20225;-74
2021/06/24 03:19:51;;;;;;;9.02;4.63;;;;;;;16.00;100.00;101339.06;4979465;28;20197;-75
2021/06/24 03:22:17;;;;;;;5.38;4.88;;;;;;;16.01;100.00;101343.47;4991921;28;20221;-74
2021/06/24 03:24:51;;;;;;;11.80;5.25;;;;;;;16.03;100.00;101346.72;5007776;28;20219;-74
2021/06/24 03:27:26;;;;;;;8.40;5.07;;;;;;;15.98;100.00;101349.50;4979151;28;20217;-74
2021/06/24 03:30:18;;;;;;;5.78;5.13;;;;;;;15.95;100.00;101344.63;4985665;28;20196;-74
2021/06/24 03:32:44;;;;;;;5.72;4.75;;;;;;;15.90;100.00;101355.63;5011249;28;20251;-74
2021/06/24 03:35:12;;;;;;;6.20;5.17;;;;;;;16.06;100.00;101345.31;5010476;28;20197;-74
2021/06/24 03:37:40;;;;;;;5.63;4.90;;;;;;;16.13;100.00;101348.53;4991882;28;20178;-75
2021/06/24 03:40:07;;;;;;;7.93;5.60;;;;;;;16.06;100.00;101356.28;4973951;28;20540;-75
2021/06/24 03:42:35;;;;;;;8.47;5.03;;;;;;;16.06;100.00;101357.13;4988792;28;20263;-74
2021/06/24 03:45:02;;;;;;;9.00;5.45;;;;;;;16.05;100.00;101338.22;5007317;28;20209;-75
2021/06/24 03:47:28;;;;;;;8.10;5.47;;;;;;;16.06;100.00;101343.41;4976169;28;20226;-74
2021/06/24 03:49:55;;;;;;;6.32;5.22;;;;;;;15.97;100.00;101353.38;5006999;28;20629;-77
2021/06/24 03:52:25;;;;;;;7.88;5.05;;;;;;;16.03;100.00;101352.22;5009722;28;20305;-75
2021/06/24 03:54:51;;;;;;;11.87;5.47;;;;;;;16.04;100.00;101358.50;4993701;28;20217;-74
2021/06/24 03:57:16;;;;;;;9.00;5.20;;;;;;;15.99;100.00;101351.16;5008976;28;20224;-74
2021/06/24 03:59:58;;;;;;;7.07;5.30;;;;;;;15.78;100.00;101349.72;4992090;28;20196;-74
2021/06/24 04:02:31;;;;;;;7.77;5.17;;;;;;;15.83;100.00;101344.19;4974113;28;20276;-75
2021/06/24 04:05:00;;;;;;;7.68;5.45;;;;;;;15.75;100.00;101343.19;4990695;28;21037;-74
2021/06/24 04:07:28;;;;;;;6.43;4.83;;;;;;;15.71;100.00;101342.94;4989675;28;20217;-74
2021/06/24 04:09:54;;;;;;;7.30;5.60;;;;;;;15.73;100.00;101342.66;4990144;28;20189;-74
2021/06/24 04:12:22;;;;;;;8.88;5.45;;;;;;;15.69;100.00;101345.16;4983797;28;20358;-75
2021/06/24 04:15:02;;;;;;;6.13;5.53;;;;;;;15.77;100.00;101347.28;5005808;28;20209;-73
2021/06/24 04:17:32;;;;;;;8.43;5.50;;;;;;;15.69;100.00;101355.31;4990524;28;20292;-75
2021/06/24 04:19:57;;;;;;;7.83;5.10;;;;;;;15.85;100.00;101344.72;4974134;28;20635;-75
2021/06/24 04:22:23;;;;;;;6.88;5.30;;;;;;;15.85;100.00;101347.47;4976705;28;20224;-74
2021/06/24 04:25:10;;;;;;;6.50;5.43;;;;;;;15.69;100.00;101336.94;5010995;28;20611;-75
2021/06/24 04:27:37;;;;;;;6.43;5.63;;;;;;;15.69;100.00;101341.59;4993348;28;20188;-74
2021/06/24 04:30:04;;;;;;;8.73;5.07;;;;;;;15.86;100.00;101335.41;4975719;28;20185;-77
2021/06/24 04:32:31;;;;;;;7.22;5.25;;;;;;;15.87;100.00;101342.50;5009731;28;20296;-74
2021/06/24 04:34:56;;;;;;;5.88;4.90;;;;;;;16.05;100.00;101332.72;4978066;28;20232;-75
2021/06/24 04:37:23;;;;;;;8.25;5.32;;;;;;;16.07;100.00;101334.06;4973714;28;20264;-75
2021/06/24 04:39:49;;;;;;;7.38;5.22;;;;;;;16.00;100.00;101341.81;4988084;28;20181;-76
2021/06/24 04:42:19;;;;;;;5.90;5.22;;;;;;;16.08;100.00;101349.41;5000966;28;20239;-74
2021/06/24 04:45:07;;;;;;;6.85;5.07;;;;;;;16.11;100.00;101343.34;4999461;28;20201;-73
2021/06/24 04:47:40;;;;;;;7.30;5.00;;;;;;;16.30;100.00;101341.47;4980250;28;20217;-75
2021/06/24 04:50:08;;;;;;;8.33;5.17;;;;;;;16.39;100.00;101342.47;5010205;28;20693;-75
2021/06/24 04:52:51;;;;;;;8.32;5.07;;;;;;;16.39;100.00;101339.72;4978312;28;20174;-75
2021/06/24 04:55:26;;;;;;;5.60;4.95;;;;;;;16.27;100.00;101350.31;4975057;28;20209;-74
2021/06/24 04:57:57;;;;;;;6.97;4.97;;;;;;;16.57;100.00;101359.81;4993571;28;20177;-74
2021/06/24 05:00:35;;;;;;;8.85;5.30;;;;;;;16.60;100.00;101359.19;4990909;28;20309;-74
2021/06/24 05:03:13;;;;;;;9.35;5.35;;;;;;;16.47;100.00;101352.81;4990156;28;20204;-73
2021/06/24 05:05:49;;;;;;;9.87;4.80;;;;;;;16.47;100.00;101342.66;5009113;28;20228;-73
2021/06/24 05:08:20;;;;;;;7.75;5.40;;;;;;;16.48;100.00;101340.72;4993056;28;20209;-74
2021/06/24 05:10:49;;;;;;;7.65;5.28;;;;;;;16.55;100.00;101338.44;4992770;28;20229;-73
2021/06/24 05:13:19;;;;;;;9.15;5.65;;;;;;;16.74;100.00;101342.81;5009262;28;20712;-73
2021/06/24 05:15:50;;;;;;;7.25;4.63;;;;;;;16.69;100.00;101340.97;4992496;28;20237;-75
2021/06/24 05:18:17;;;;;;;8.20;4.70;;;;;;;16.45;100.00;101333.91;4990201;28;20599;-74
2021/06/24 05:20:44;;;;;;;7.43;5.63;;;;;;;16.36;100.00;101338.41;4987054;28;20223;-74
2021/06/24 05:23:14;;;;;;;8.52;5.70;;;;;;;16.35;100.00;101338.69;4995596;28;20785;-75
2021/06/24 05:25:41;;;;;;;7.35;5.35;;;;;;;16.38;100.00;101319.72;4999899;28;20228;-75
2021/06/24 05:28:07;;;;;;;7.53;5.10;;;;;;;16.62;100.00;101326.78;4957146;28;20734;-76
2021/06/24 05:30:33;;;;;;;8.13;5.20;;;;;;;16.77;100.00;101315.59;4979588;28;20324;-73
2021/06/24 05:33:00;;;;;;;9.48;5.50;;;;;;;16.58;100.00;101320.28;5004701;28;20209;-75
2021/06/24 05:35:26;;;;;;;7.05;5.03;;;;;;;16.79;100.00;101329.84;5005108;28;21756;-75
2021/06/24 05:37:52;;;;;;;8.32;5.38;;;;;;;16.76;100.00;101324.97;4989624;28;20659;-73
2021/06/24 05:40:22;;;;;;;6.40;4.97;;;;;;;16.73;100.00;101316.50;4971787;28;20173;-74
2021/06/24 05:42:49;;;;;;;9.73;5.75;;;;;;;16.67;100.00;101318.50;5001200;28;20195;-74
2021/06/24 05:45:15;;;;;;;10.13;5.28;;;;;;;16.67;100.00;101321.25;5001199;28;20219;-73
2021/06/24 05:47:43;;;;;;;6.65;5.13;;;;;;;16.71;100.00;101321.47;4979459;28;20209;-73
2021/06/24 05:50:11;;;;;;;6.90;4.95;;;;;;;16.72;100.00;101320.34;4999118;28;20192;-74
2021/06/24 05:52:37;;;;;;;6.68;5.40;;;;;;;16.71;100.00;101322.28;5013792;28;20181;-75
2021/06/24 05:55:05;;;;;;;9.02;5.10;;;;;;;16.90;100.00;101334.06;5006752;28;20217;-74
2021/06/24 05:57:31;;;;;;;10.85;5.50;;;;;;;17.00;100.00;101325.69;4992887;28;20217;-74
2021/06/24 05:59:59;;;;;;;9.40;5.40;;;;;;;17.09;100.00;101321.16;4974572;28;20181;-73
2021/06/24 06:02:25;;;;;;;6.68;5.30;;;;;;;17.19;100.00;101318.28;4980103;28;20844;-74
2021/06/24 06:04:50;;;;;;;6.93;4.95;;;;;;;17.36;100.00;101322.94;4996716;28;20300;-74
2021/06/24 06:07:18;;;;;;;6.68;5.57;;;;;;;17.47;100.00;101315.31;5011581;28;20221;-74
2021/06/24 06:09:44;;;;;;;9.13;6.20;;;;;;;17.73;100.00;101320.06;5012099;28;20307;-73
2021/06/24 06:12:10;;;;;;;9.93;6.15;;;;;;;17.53;100.00;101314.94;4980894;28;20222;-74
2021/06/24 06:14:40;;;;;;;9.80;6.20;;;;;;;17.57;100.00;101318.72;4993892;28;20209;-72
2021/06/24 06:17:06;;;;;;;10.07;6.88;;;;;;;17.89;100.00;101318.66;4995867;28;20736;-73
2021/06/24 06:19:32;;;;;;;8.75;7.13;;;;;;;17.57;100.00;101313.22;5012605;28;20181;-72
2021/06/24 06:22:02;;;;;;;10.82;7.07;;;;;;;17.97;100.00;101315.22;5010932;28;20232;-73
2021/06/24 06:24:28;;;;;;;8.77;7.03;;;;;;;17.97;100.00;101315.22;4996189;28;20303;-73
2021/06/24 06:26:55;;;;;;;10.07;7.13;;;;;;;18.02;100.00;101326.09;4989562;28;20221;-74
2021/06/24 06:29:21;;;;;;;8.98;6.90;;;;;;;18.11;100.00;101321.56;4992846;28;20205;-73
2021/06/24 06:31:49;;;;;;;10.00;7.18;;;;;;;17.88;100.00;101328.03;4991214;28;20252;-73
2021/06/24 06:34:15;;;;;;;9.85;7.55;;;;;;;18.16;100.00;101325.81;4976736;28;20706;-73
2021/06/24 06:36:43;;;;;;;9.75;8.23;;;;;;;18.08;100.00;101327.66;4989643;28;20245;-73
2021/06/24 06:39:09;;;;;;;9.35;7.30;;;;;;;18.36;100.00;101330.91;4996509;28;20181;-74
2021/06/24 06:41:35;;;;;;;9.60;7.90;;;;;;;18.52;100.00;101332.25;4991530;28;20609;-74
2021/06/24 06:44:05;;;;;;;11.05;8.73;;;;;;;18.48;100.00;101333.97;4983443;28;20814;-75
2021/06/24 06:46:30;;;;;;;10.25;8.45;;;;;;;18.71;100.00;101336.47;4986296;28;20227;-73
2021/06/24 06:49:00;;;;;;;11.30;9.07;;;;;;;18.83;100.00;101335.94;5012287;28;20204;-74
2021/06/24 06:51:25;;;;;;;11.30;9.07;;;;;;;18.98;100.00;101337.25;5005728;28;20222;-74
2021/06/24 06:53:56;;;;;;;10.98;9.52;;;;;;;18.79;100.00;101349.53;4976373;28;20207;-75
2021/06/24 06:56:22;;;;;;;10.93;9.10;;;;;;;18.82;100.00;101350.84;4999536;28;20274;-74
2021/06/24 06:58:48;;;;;;;11.18;9.07;;;;;;;18.64;100.00;101349.03;4995572;28;20740;-74
2021/06/24 07:01:17;;;;;;;10.63;9.48;;;;;;;18.69;100.00;101346.19;4990604;28;20217;-73
2021/06/24 07:03:45;;;;;;;10.52;9.48;;;;;;;18.78;100.00;101344.31;4959394;28;20205;-74
2021/06/24 07:06:14;;;;;;;10.73;8.85;;;;;;;18.55;100.00;101348.13;4997091;28;20236;-75
2021/06/24 07:08:43;;;;;;;10.55;8.02;;;;;;;19.09;100.00;101355.19;5011537;28;20221;-74
2021/06/24 07:11:09;;;;;;;8.48;7.32;;;;;;;18.72;99.85;101351.06;5008752;28;20294;-74
2021/06/24 07:13:38;;;;;;;10.02;6.78;;;;;;;19.24;98.55;101357.56;5011611;28;20247;-74
2021/06/24 07:16:09;;;;;;;9.82;7.03;;;;;;;19.66;96.13;101355.94;5011788;28;20605;-75
2021/06/24 07:18:34;;;;;;;8.10;6.18;;;;;;;20.02;93.67;101351.16;5012255;28;20185;-75
2021/06/24 07:21:00;;;;;;;7.78;6.45;;;;;;;19.97;91.03;101353.25;4976663;28;20604;-75
2021/06/24 07:23:30;;;;;;;7.88;6.72;;;;;;;20.29;90.15;101350.94;4993118;28;20252;-75
2021/06/24 07:25:56;;;;;;;6.97;6.28;;;;;;;20.28;88.27;101355.66;4977422;28;20249;-73
2021/06/24 07:28:22;;;;;;;7.90;6.40;;;;;;;19.50;90.65;101361.34;5012597;28;20220;-74
2021/06/24 07:30:49;;;;;;;7.50;6.05;;;;;;;19.65;90.79;101359.03;5027733;28;20232;-74
2021/06/24 07:33:18;;;;;;;8.02;5.82;;;;;;;19.71;90.39;101352.25;4993312;28;20240;-76
2021/06/24 07:35:44;;;;;;;6.60;5.60;;;;;;;19.31;90.21;101355.22;4996951;28;20649;-73
2021/06/24 07:38:12;;;;;;;6.55;5.32;;;;;;;19.88;87.15;101355.94;4994379;28;20209;-75
2021/06/24 07:40:40;;;;;;;7.78;5.85;;;;;;;20.23;87.42;101346.69;4991604;28;20217;-74
2021/06/24 07:43:11;;;;;;;7.57;5.40;;;;;;;20.27;86.49;101342.16;5008342;28;20217;-74
2021/06/24 07:45:37;;;;;;;5.10;4.45;;;;;;;20.11;84.96;101343.75;4990668;28;20229;-75
2021/06/24 07:48:04;;;;;;;6.30;4.90;;;;;;;20.34;84.27;101342.50;4973548;28;20209;-75
2021/06/24 07:50:32;;;;;;;5.70;5.13;;;;;;;20.10;84.73;101353.13;5010414;28;20235;-75
2021/06/24 07:52:58;;;;;;;7.20;4.60;;;;;;;20.01;84.35;101344.00;5005569;28;20196;-74
2021/06/24 07:55:32;;;;;;;4.65;4.20;;;;;;;19.84;85.62;101340.34;4994321;28;20244;-74
2021/06/24 07:58:07;;;;;;;5.20;4.68;;;;;;;20.11;84.91;101338.22;5011333;28;20182;-75
2021/06/24 08:00:38;;;;;;;4.88;4.47;;;;;;;20.10;85.23;101336.56;5007055;28;20236;-75
2021/06/24 08:03:07;;;;;;;5.68;4.28;;;;;;;20.56;83.02;101341.28;5013661;28;20200;-74
2021/06/24 08:05:36;;;;;;;5.65;4.28;;;;;;;20.52;81.96;101329.25;4994929;28;20229;-75
2021/06/24 08:08:04;;;;;;;4.80;4.20;;;;;;;20.42;82.33;101333.44;5010238;28;20215;-74
2021/06/24 08:10:31;;;;;;;4.07;3.72;;;;;;;20.32;81.19;101317.19;4973546;28;20324;-75
2021/06/24 08:12:59;;;;;;;6.50;4.00;;;;;;;20.02;80.94;101334.59;4990838;28;20182;-75
2021/06/24 08:15:28;;;;;;;5.03;3.63;;;;;;;20.60;79.09;101322.94;4989821;28;20244;-74
2021/06/24 08:17:57;;;;;;;5.13;4.30;;;;;;;20.20;80.86;101325.25;4985589;28;20676;-74
2021/06/24 08:20:23;;;;;;;5.15;4.10;;;;;;;20.07;82.25;101320.66;5025492;28;21043;-74
2021/06/24 08:22:49;;;;;;;6.68;4.38;;;;;;;20.08;81.96;101311.25;5002410;28;20205;-74
2021/06/24 08:25:19;;;;;;;4.43;4.03;;;;;;;20.47;80.00;101309.25;4989874;28;20232;-75
2021/06/24 08:27:49;;;;;;;5.25;4.28;;;;;;;21.13;77.85;101306.91;4997403;28;20204;-76
2021/06/24 08:30:18;;;;;;;3.90;3.50;;;;;;;21.42;75.21;101308.72;5024929;28;20237;-73
2021/06/24 08:32:44;;;;;;;4.95;3.45;;;;;;;21.04;72.43;101309.69;5020254;28;20197;-74
2021/06/24 08:35:10;;;;;;;4.05;3.65;;;;;;;21.36;72.62;101304.47;4989494;28;20218;-74
2021/06/24 08:37:39;;;;;;;6.57;3.90;;;;;;;21.82;71.55;101299.81;4994490;28;20185;-74
2021/06/24 08:40:06;;;;;;;5.07;3.90;;;;;;;21.96;68.20;101299.59;4976831;28;20700;-75
2021/06/24 08:42:32;;;;;;;4.88;3.72;;;;;;;21.77;69.01;101297.22;4998190;28;20194;-75
2021/06/24 08:45:01;;;;;;;4.32;3.60;;;;;;;22.00;68.23;101300.59;5009513;28;20274;-74
2021/06/24 08:47:28;;;;;;;3.92;3.63;;;;;;;22.04;65.02;101302.34;5007524;28;20792;-74
2021/06/24 08:49:57;;;;;;;5.40;3.33;;;;;;;22.15;67.66;101296.13;4988605;28;20193;-75
2021/06/24 08:52:23;;;;;;;3.50;3.05;;;;;;;22.15;67.73;101298.06;4973602;28;20898;-74
2021/06/24 08:54:48;;;;;;;3.60;3.08;;;;;;;22.00;65.92;101284.00;4993152;28;20238;-77
2021/06/24 08:57:16;;;;;;;3.58;2.83;;;;;;;22.00;65.08;101295.06;5009376;28;20690;-77
2021/06/24 08:59:43;;;;;;;4.15;2.95;;;;;;;22.22;64.19;101284.56;4989198;28;20233;-76
2021/06/24 09:02:18;;;;;;;3.70;2.78;;;;;;;22.63;66.14;101294.53;4972284;28;20225;-76
2021/06/24 09:04:45;;;;;;;5.13;3.10;;;;;;;22.99;64.59;101290.06;4992893;28;20681;-76
2021/06/24 09:07:20;;;;;;;4.03;3.50;;;;;;;22.30;65.31;101283.69;4992013;28;20224;-77
2021/06/24 09:10:01;;;;;;;4.47;3.10;;;;;;;22.49;61.25;101287.63;4988238;28;20296;-77
2021/06/24 09:12:29;;;;;;;6.70;2.70;;;;;;;23.44;61.01;101277.91;4999566;28;20603;-76
2021/06/24 09:15:03;;;;;;;3.92;2.65;;;;;;;23.28;60.33;101284.44;4989203;28;20556;-76
2021/06/24 09:17:42;;;;;;;2.80;2.50;;;;;;;23.37;59.32;101294.28;4989323;28;20753;-76
2021/06/24 09:20:19;;;;;;;2.72;2.53;;;;;;;23.32;55.24;101285.38;4987547;28;20682;-76
2021/06/24 09:23:11;;;;;;;4.32;2.63;;;;;;;22.68;59.06;101290.78;4989163;28;20280;-77
2021/06/24 09:25:41;;;;;;;2.40;2.20;;;;;;;22.27;60.95;101281.56;4992110;28;20217;-76
2021/06/24 09:28:07;;;;;;;2.85;2.40;;;;;;;22.50;58.70;101278.19;5008765;28;20282;-76
2021/06/24 09:30:35;;;;;;;2.40;2.20;;;;;;;23.31;58.18;101273.44;5007688;28;20251;-76
2021/06/24 09:33:11;;;;;;;3.25;2.20;;;;;;;23.38;57.57;101276.47;4992673;28;20177;-76
2021/06/24 09:35:42;;;;;;;3.80;2.50;;;;;;;23.82;57.46;101264.59;4973685;28;20236;-77
2021/06/24 09:38:16;;;;;;;3.08;2.80;;;;;;;24.17;56.21;101263.81;4973981;28;20325;-77
2021/06/24 09:40:54;;;;;;;3.78;2.55;;;;;;;24.44;53.61;101264.75;5002425;28;20224;-77
2021/06/24 09:43:22;;;;;;;2.60;2.40;;;;;;;24.20;53.55;101263.13;4982550;28;20679;-76
2021/06/24 09:46:00;;;;;;;3.78;2.65;;;;;;;23.89;53.87;101254.56;5005928;28;20248;-77
2021/06/24 09:48:42;;;;;;;2.60;2.40;;;;;;;24.58;52.97;101259.66;4990653;28;20212;-77
2021/06/24 09:51:17;;;;;;;2.00;1.88;;;;;;;24.72;51.84;101259.25;4972276;28;20237;-76
2021/06/24 09:54:15;;;;;;;6.10;3.15;;;;;;;24.42;53.19;101264.28;4961498;28;20251;-77
2021/06/24 09:56:51;;;;;;;2.28;2.08;;;;;;;24.42;52.61;101267.06;5007832;28;20239;-77
2021/06/24 09:59:18;;;;;;;3.42;2.70;;;;;;;24.83;52.94;101261.19;4993163;28;20238;-76
2021/06/24 10:01:49;;;;;;;3.53;2.97;;;;;;;24.79;50.62;101265.84;5023446;28;20271;-76
2021/06/24 10:04:23;;;;;;;3.45;2.58;;;;;;;24.42;52.33;101272.63;4988932;28;20217;-77
2021/06/24 10:06:53;;;;;;;2.83;2.53;;;;;;;24.41;52.57;101264.63;4956920;28;20225;-77
2021/06/24 10:09:21;;;;;;;3.03;2.53;;;;;;;24.17;52.39;101258.25;4979373;28;20223;-76
2021/06/24 10:11:47;;;;;;;2.67;2.38;;;;;;;24.38;52.21;101266.16;5018193;28;20225;-77
2021/06/24 10:14:19;;;;;;;3.58;3.28;;;;;;;23.75;53.81;101267.94;4999905;28;20233;-76
2021/06/24 10:16:54;;;;;;;4.32;3.90;;;;;;;22.81;56.36;101269.16;4973729;28;20308;-76
2021/06/24 10:19:29;;;;;;;4.00;3.40;;;;;;;22.64;60.80;101270.44;4994282;28;20173;-76
2021/06/24 10:22:00;;;;;;;4.65;4.00;;;;;;;22.91;60.56;101268.78;4997801;28;20267;-77
2021/06/24 10:24:31;;;;;;;4.50;3.10;;;;;;;23.06;60.03;101262.63;5007347;28;20196;-76
2021/06/24 10:26:58;;;;;;;5.28;3.30;;;;;;;22.83;59.09;101253.00;5008308;28;20232;-75
2021/06/24 10:29:37;;;;;;;3.90;3.30;;;;;;;23.16;57.39;101248.31;5012820;28;20236;-78
2021/06/24 10:32:06;;;;;;;3.28;2.92;;;;;;;23.61;56.80;101250.81;5011110;28;20775;-78
2021/06/24 10:34:44;;;;;;;3.80;3.50;;;;;;;;;;5021456;28;20218;-77
2021/06/24 10:37:13;;;;;;;3.35;3.15;;;;;;;23.62;57.56;101246.88;5005805;28;20225;-76
2021/06/24 10:39:44;;;;;;;3.67;3.20;;;;;;;23.63;57.59;101245.72;4998448;28;20169;-78
2021/06/24 10:42:14;;;;;;;3.53;3.22;;;;;;;23.19;61.11;101248.47;5000301;28;20702;-78
2021/06/24 10:44:56;;;;;;;4.63;3.60;;;;;;;23.61;57.79;101239.72;5008154;28;20718;-77
2021/06/24 10:47:41;;;;;;;3.65;3.00;;;;;;;23.14;58.78;101250.63;4976594;28;20232;-77
2021/06/24 10:50:29;;;;;;;3.30;3.00;;;;;;;23.16;60.36;101251.09;4998233;28;20208;-77
2021/06/24 10:53:15;;;;;;;3.53;3.22;;;;;;;22.82;60.92;101248.63;5011919;28;20243;-77
2021/06/24 10:55:47;;;;;;;4.05;3.72;;;;;;;22.65;62.10;101242.38;4964242;28;20237;-77
2021/06/24 10:58:24;;;;;;;3.60;3.30;;;;;;;22.65;61.13;101247.91;4978263;28;20178;-77
2021/06/24 11:00:54;;;;;;;3.97;3.67;;;;;;;23.38;59.48;101245.16;5003641;28;20224;-77
2021/06/24 11:03:26;;;;;;;6.85;3.72;;;;;;;24.15;56.45;101232.81;4996747;28;20212;-78
2021/06/24 11:05:53;;;;;;;3.30;2.67;;;;;;;23.94;57.39;101236.84;4991808;28;20225;-76
2021/06/24 11:08:20;;;;;;;4.60;2.92;;;;;;;23.60;58.63;101235.31;4976240;28;20213;-77
2021/06/24 11:11:01;;;;;;;2.97;2.72;;;;;;;23.44;58.60;101241.00;4985971;28;20227;-76
2021/06/24 11:13:38;;;;;;;4.57;3.00;;;;;;;23.33;59.53;101231.50;4979656;28;20687;-77
2021/06/24 11:16:19;;;;;;;3.20;2.60;;;;;;;24.02;57.55;101225.63;5001146;28;20264;-78
2021/06/24 11:18:55;;;;;;;2.80;2.60;;;;;;;23.86;54.62;101230.25;4977770;28;20211;-77
2021/06/24 11:21:29;;;;;;;3.80;2.60;;;;;;;24.36;53.68;101229.56;5006727;28;20232;-77
2021/06/24 11:24:01;;;;;;;3.80;2.15;;;;;;;24.89;52.71;101226.41;5011144;28;20208;-75
2021/06/24 11:26:27;;;;;;;2.22;2.05;;;;;;;25.32;54.14;101218.97;5006469;28;20235;-75
2021/06/24 11:32:00;;;;;;;3.47;2.22;;;;;;;24.78;51.63;101222.53;4985338;28;20267;-75
2021/06/24 11:34:39;;;;;;;2.35;2.15;;;;;;;24.60;55.23;101218.41;4998647;28;20205;-75
2021/06/24 11:37:09;;;;;;;3.15;2.40;;;;;;;23.63;57.03;101220.75;4995501;28;20311;-75